Time;durP1;ratioP1;P1;durP2;ratioP2;P2;SDS_P1;SDS_P2;PMS_P1;PMS_P2;Temp;Humidity;BMP_temperature;BMP_pressure;BME280_temperature;BME280_humidity;BME280_pressure;Samples;Min_cycle;Max_cycle;Signal;HPM_P1;HPM_P2
2024/02/29 00:00:39;;;;;;;3.10;1.70;;;20.90;58.50;;;;;;5015850;27;89600;-63
2024/02/29 00:03:08;;;;;;;3.90;1.50;;;20.80;58.40;;;;;;5020815;27;87800;-63
2024/02/29 00:05:35;;;;;;;3.22;1.80;;;20.80;58.40;;;;;;5020502;28;88236;-63
2024/02/29 00:08:01;;;;;;;3.13;2.10;;;20.80;58.50;;;;;;5025951;27;87172;-63
2024/02/29 00:10:28;;;;;;;2.60;1.60;;;20.80;58.30;;;;;;5021509;28;89829;-63
2024/02/29 00:12:54;;;;;;;2.85;1.92;;;20.80;58.30;;;;;;5012847;28;90178;-63
2024/02/29 00:15:20;;;;;;;2.63;1.75;;;20.80;58.30;;;;;;5030463;27;87428;-63
2024/02/29 00:17:46;;;;;;;2.80;1.80;;;20.80;58.20;;;;;;5009856;28;87857;-63
2024/02/29 00:20:12;;;;;;;3.00;1.90;;;20.80;58.20;;;;;;5019407;27;88719;-63
2024/02/29 00:22:41;;;;;;;3.03;1.70;;;20.80;58.30;;;;;;5017453;27;88477;-63
2024/02/29 00:25:08;;;;;;;2.60;1.60;;;20.80;58.30;;;;;;5032933;27;87336;-63
2024/02/29 00:27:34;;;;;;;4.15;1.83;;;20.80;58.30;;;;;;5031432;27;88071;-63
2024/02/29 00:30:00;;;;;;;4.18;1.85;;;20.70;58.10;;;;;;5031207;27;88848;-63
2024/02/29 00:32:26;;;;;;;3.72;1.80;;;20.70;58.20;;;;;;5024990;27;88280;-63
2024/02/29 00:34:51;;;;;;;3.33;1.95;;;20.70;58.00;;;;;;5018728;27;87219;-63
2024/02/29 00:37:17;;;;;;;3.55;1.75;;;20.70;57.90;;;;;;5027178;28;87336;-63
2024/02/29 00:39:43;;;;;;;5.28;2.42;;;20.70;57.90;;;;;;5030973;27;88121;-63
2024/02/29 00:42:08;;;;;;;3.35;2.08;;;20.70;58.20;;;;;;5031820;27;87847;-63
2024/02/29 00:44:34;;;;;;;3.45;1.65;;;20.70;58.00;;;;;;5010008;27;87480;-63
2024/02/29 00:47:02;;;;;;;3.53;1.92;;;20.70;58.00;;;;;;5030814;27;87831;-63
2024/02/29 00:49:28;;;;;;;4.25;2.75;;;20.70;58.00;;;;;;5043352;27;88062;-63
2024/02/29 00:51:54;;;;;;;3.58;2.03;;;20.60;58.00;;;;;;5029908;28;90318;-63
2024/02/29 00:54:24;;;;;;;4.18;2.00;;;20.70;58.40;;;;;;5031167;27;88483;-63
2024/02/29 00:56:50;;;;;;;3.33;2.00;;;20.60;57.90;;;;;;5029722;27;86997;-62
2024/02/29 00:59:16;;;;;;;2.35;1.35;;;20.70;57.90;;;;;;5025068;27;87774;-63
2024/02/29 01:01:41;;;;;;;3.03;1.67;;;20.60;57.80;;;;;;5019063;27;87826;-63
2024/02/29 01:04:07;;;;;;;2.35;1.63;;;20.60;57.80;;;;;;5029485;28;87222;-63
2024/02/29 01:06:33;;;;;;;4.78;1.80;;;20.60;57.90;;;;;;5014349;28;88064;-63
2024/02/29 01:08:58;;;;;;;3.13;1.60;;;20.60;57.90;;;;;;5006878;28;88946;-63
2024/02/29 01:11:25;;;;;;;4.43;1.90;;;20.60;57.80;;;;;;5020980;27;87290;-62
2024/02/29 01:13:52;;;;;;;3.10;1.95;;;20.60;57.80;;;;;;5019851;28;87719;-63
2024/02/29 01:16:17;;;;;;;3.28;1.98;;;20.60;57.60;;;;;;5011233;28;88729;-63
2024/02/29 01:18:43;;;;;;;3.97;1.83;;;20.60;57.70;;;;;;5011211;28;89483;-63
2024/02/29 01:21:09;;;;;;;3.13;1.95;;;20.60;57.50;;;;;;5017344;27;88478;-63
2024/02/29 01:23:35;;;;;;;3.63;1.92;;;20.60;57.60;;;;;;5013255;27;86992;-63
2024/02/29 01:26:04;;;;;;;3.00;1.65;;;20.50;57.50;;;;;;5005918;28;88088;-63
2024/02/29 01:28:29;;;;;;;2.90;1.70;;;20.60;57.50;;;;;;5016372;27;88080;-63
2024/02/29 01:30:55;;;;;;;3.22;1.60;;;20.50;57.50;;;;;;5019855;27;87730;-63
2024/02/29 01:33:21;;;;;;;3.63;2.10;;;20.60;57.60;;;;;;5025195;28;87999;-63
2024/02/29 01:35:47;;;;;;;2.67;1.83;;;20.50;57.40;;;;;;5021399;28;86799;-63
2024/02/29 01:38:13;;;;;;;2.90;1.77;;;20.50;57.40;;;;;;5028578;27;89327;-64
2024/02/29 01:40:39;;;;;;;2.35;1.75;;;20.50;57.40;;;;;;5028536;27;89445;-65
2024/02/29 01:43:05;;;;;;;3.47;2.20;;;20.50;57.50;;;;;;5028976;28;88032;-64
2024/02/29 01:45:32;;;;;;;3.08;1.77;;;20.50;57.40;;;;;;5019852;28;88324;-64
2024/02/29 01:47:58;;;;;;;3.53;1.70;;;20.50;57.30;;;;;;4990148;28;88689;-65
2024/02/29 01:50:26;;;;;;;3.58;2.10;;;20.50;57.30;;;;;;5022879;27;88659;-64
2024/02/29 01:52:51;;;;;;;2.67;1.60;;;20.50;56.90;;;;;;5018190;27;87325;-64
2024/02/29 01:55:18;;;;;;;3.88;2.28;;;20.50;56.80;;;;;;5012711;28;87395;-64
2024/02/29 01:57:44;;;;;;;3.22;1.95;;;20.50;56.80;;;;;;5011070;28;88449;-64
2024/02/29 02:00:10;;;;;;;2.90;2.05;;;20.50;56.80;;;;;;5007966;28;88094;-64
2024/02/29 02:02:37;;;;;;;3.20;2.05;;;20.50;56.80;;;;;;5032060;27;87511;-64
2024/02/29 02:05:05;;;;;;;2.05;1.55;;;20.40;56.80;;;;;;5021639;27;86865;-64
2024/02/29 02:07:32;;;;;;;3.67;1.75;;;20.40;56.90;;;;;;5006664;27;90104;-64
2024/02/29 02:09:59;;;;;;;3.47;2.28;;;20.40;56.90;;;;;;5026039;28;88248;-64
2024/02/29 02:12:25;;;;;;;3.00;1.73;;;20.40;56.70;;;;;;5021177;28;87244;-64
2024/02/29 02:14:50;;;;;;;2.17;1.60;;;20.40;56.70;;;;;;5016929;28;87454;-64
2024/02/29 02:17:16;;;;;;;2.38;1.58;;;20.40;56.60;;;;;;5024938;27;87564;-64
2024/02/29 02:19:42;;;;;;;3.90;2.00;;;20.40;56.60;;;;;;5017301;27;88013;-64
2024/02/29 02:22:08;;;;;;;2.90;1.60;;;20.40;56.60;;;;;;5015364;28;87000;-64
2024/02/29 02:24:34;;;;;;;4.32;2.17;;;20.40;56.60;;;;;;5019628;28;88260;-64
2024/02/29 02:27:01;;;;;;;3.15;1.58;;;20.40;56.60;;;;;;5010219;28;88599;-64
2024/02/29 02:29:27;;;;;;;3.03;1.85;;;20.40;56.60;;;;;;5030060;27;88099;-64
2024/02/29 02:31:53;;;;;;;2.40;1.60;;;20.40;56.70;;;;;;5019916;28;88209;-64
2024/02/29 02:34:20;;;;;;;4.15;1.70;;;20.30;56.50;;;;;;5016325;28;87542;-64
2024/02/29 02:36:46;;;;;;;2.45;1.45;;;20.30;56.50;;;;;;5033023;27;89699;-64
2024/02/29 02:39:12;;;;;;;3.65;2.03;;;20.40;56.60;;;;;;5032003;28;87691;-64
2024/02/29 02:41:40;;;;;;;2.58;1.92;;;20.30;56.40;;;;;;5026377;27;87391;-64
2024/02/29 02:44:06;;;;;;;2.45;1.80;;;20.40;56.40;;;;;;5012833;28;87407;-64
2024/02/29 02:46:32;;;;;;;3.92;1.65;;;20.30;56.40;;;;;;5013213;27;88130;-64
2024/02/29 02:48:58;;;;;;;3.03;1.77;;;20.30;56.40;;;;;;5014384;28;87686;-64
2024/02/29 02:51:27;;;;;;;2.75;1.98;;;20.30;56.50;;;;;;5013444;27;87458;-65
2024/02/29 02:53:52;;;;;;;4.00;2.10;;;20.30;56.50;;;;;;5017214;27;88018;-65
2024/02/29 02:56:18;;;;;;;2.83;1.67;;;20.30;56.50;;;;;;5020580;27;89077;-65
2024/02/29 02:58:44;;;;;;;2.08;1.63;;;20.30;56.30;;;;;;5027828;27;88471;-64
2024/02/29 03:01:10;;;;;;;2.65;1.70;;;20.30;56.30;;;;;;5022842;28;87281;-64
2024/02/29 03:03:35;;;;;;;2.08;1.52;;;20.30;56.20;;;;;;5029085;27;87355;-64
2024/02/29 03:06:01;;;;;;;2.42;1.60;;;20.30;56.30;;;;;;5031423;27;89507;-64
2024/02/29 03:08:27;;;;;;;3.17;1.77;;;20.30;56.50;;;;;;5026075;27;88433;-64
2024/02/29 03:10:55;;;;;;;3.42;2.17;;;20.30;56.40;;;;;;5028366;28;87779;-64
2024/02/29 03:13:20;;;;;;;2.70;1.75;;;20.20;56.20;;;;;;5017559;28;87585;-64
2024/02/29 03:15:46;;;;;;;3.47;1.85;;;20.20;56.30;;;;;;5032073;27;87609;-64
2024/02/29 03:18:12;;;;;;;2.90;1.77;;;20.20;56.30;;;;;;5027401;27;87722;-64
2024/02/29 03:20:37;;;;;;;2.03;1.40;;;20.20;56.20;;;;;;5017612;28;88798;-64
2024/02/29 03:23:06;;;;;;;2.72;1.83;;;20.20;56.10;;;;;;5032255;27;87733;-64
2024/02/29 03:25:31;;;;;;;2.50;1.50;;;20.20;56.10;;;;;;5029708;28;88259;-64
2024/02/29 03:27:57;;;;;;;4.45;1.70;;;20.30;56.10;;;;;;5014719;28;87826;-64
2024/02/29 03:30:23;;;;;;;2.15;1.70;;;20.20;56.30;;;;;;5016355;28;88159;-64
2024/02/29 03:32:49;;;;;;;3.28;1.60;;;20.20;56.20;;;;;;5018732;28;87599;-65
2024/02/29 03:35:16;;;;;;;2.42;1.83;;;20.20;56.10;;;;;;5028475;27;88531;-65
2024/02/29 03:37:42;;;;;;;3.08;1.60;;;20.20;56.00;;;;;;5024541;27;87162;-64
2024/02/29 03:40:08;;;;;;;2.47;1.55;;;20.20;56.00;;;;;;5014521;28;87602;-65
2024/02/29 03:42:34;;;;;;;2.38;1.80;;;20.20;56.10;;;;;;5032670;27;87523;-64
2024/02/29 03:44:59;;;;;;;3.13;2.08;;;20.20;56.10;;;;;;5014162;27;89121;-64
2024/02/29 03:47:25;;;;;;;2.72;2.25;;;20.20;56.10;;;;;;5015262;28;88189;-64
2024/02/29 03:49:50;;;;;;;2.10;1.60;;;20.20;56.10;;;;;;5033719;27;87525;-64
2024/02/29 03:52:16;;;;;;;2.17;1.48;;;20.20;56.10;;;;;;5032774;28;87178;-64
2024/02/29 03:54:45;;;;;;;5.22;1.67;;;20.20;56.10;;;;;;5030773;27;87890;-64
2024/02/29 03:57:10;;;;;;;2.33;1.60;;;20.10;56.00;;;;;;5032814;27;87812;-63
2024/02/29 03:59:37;;;;;;;2.40;1.73;;;20.10;56.10;;;;;;5020655;27;87356;-64
2024/02/29 04:02:03;;;;;;;2.72;1.67;;;20.10;56.00;;;;;;5026545;27;86468;-63
2024/02/29 04:04:30;;;;;;;2.25;1.42;;;20.10;56.10;;;;;;5010296;27;88299;-63
2024/02/29 04:06:56;;;;;;;2.13;1.27;;;20.10;56.00;;;;;;5031773;28;90533;-64
2024/02/29 04:09:22;;;;;;;2.15;1.48;;;20.10;56.10;;;;;;5018143;28;88286;-64
2024/02/29 04:11:49;;;;;;;3.05;1.70;;;20.10;56.10;;;;;;5027191;27;87148;-63
2024/02/29 04:14:17;;;;;;;2.88;1.77;;;20.10;55.90;;;;;;5016898;27;88613;-63
2024/02/29 04:16:43;;;;;;;2.67;1.60;;;20.10;56.00;;;;;;5032458;27;88487;-63
2024/02/29 04:19:09;;;;;;;2.47;1.60;;;20.10;56.00;;;;;;5032064;27;87443;-63
2024/02/29 04:21:35;;;;;;;2.10;1.75;;;20.10;56.00;;;;;;5024077;27;87905;-63
2024/02/29 04:24:01;;;;;;;3.78;1.80;;;20.10;56.00;;;;;;5030469;27;87596;-62
2024/02/29 04:26:28;;;;;;;3.10;1.50;;;20.10;56.10;;;;;;5025192;27;88135;-62
2024/02/29 04:28:53;;;;;;;2.60;1.50;;;20.10;55.90;;;;;;5028567;27;87996;-62
2024/02/29 04:31:20;;;;;;;3.20;1.90;;;20.10;56.00;;;;;;5011363;28;87390;-63
2024/02/29 04:33:45;;;;;;;2.50;1.60;;;20.10;56.00;;;;;;5026485;27;89775;-63
2024/02/29 04:36:11;;;;;;;3.70;1.88;;;20.10;55.90;;;;;;5012725;27;88088;-64
2024/02/29 04:38:37;;;;;;;2.47;1.63;;;20.10;55.90;;;;;;5018046;27;87458;-63
2024/02/29 04:41:02;;;;;;;2.40;1.75;;;20.00;55.90;;;;;;5030964;27;86976;-63
2024/02/29 04:43:30;;;;;;;1.80;1.30;;;20.00;55.90;;;;;;5010141;27;88872;-62
2024/02/29 04:45:56;;;;;;;4.95;1.77;;;20.10;56.00;;;;;;5012229;28;87698;-63
2024/02/29 04:48:22;;;;;;;4.45;2.40;;;20.10;55.90;;;;;;5017590;27;88179;-63
2024/02/29 04:50:48;;;;;;;2.15;1.45;;;20.00;55.80;;;;;;5021812;27;86807;-62
2024/02/29 04:53:14;;;;;;;2.60;1.65;;;20.00;55.90;;;;;;5029805;27;88360;-63
2024/02/29 04:55:41;;;;;;;2.45;1.63;;;20.00;55.90;;;;;;5029976;27;86982;-63
2024/02/29 04:58:07;;;;;;;1.70;1.35;;;20.00;55.90;;;;;;5019628;28;88252;-63
2024/02/29 05:00:33;;;;;;;3.83;2.08;;;20.00;55.90;;;;;;5031370;27;87582;-62
2024/02/29 05:02:59;;;;;;;3.15;1.75;;;20.00;56.00;;;;;;5027958;27;87599;-63
2024/02/29 05:05:27;;;;;;;2.97;1.70;;;20.00;55.90;;;;;;5029005;27;87868;-63
2024/02/29 05:07:55;;;;;;;2.35;1.58;;;20.00;55.90;;;;;;5021632;27;87443;-63
2024/02/29 05:10:21;;;;;;;3.00;1.70;;;20.00;55.90;;;;;;5032039;27;87180;-63
2024/02/29 05:12:50;;;;;;;2.55;2.03;;;20.00;55.90;;;;;;5031121;27;88501;-63
2024/02/29 05:15:19;;;;;;;2.10;1.50;;;20.00;55.90;;;;;;5012461;27;87805;-62
2024/02/29 05:17:46;;;;;;;2.78;1.75;;;20.00;55.90;;;;;;5013177;27;87072;-63
2024/02/29 05:20:12;;;;;;;2.30;1.50;;;19.90;55.80;;;;;;5022079;27;87248;-62
2024/02/29 05:22:37;;;;;;;1.73;1.38;;;19.90;55.80;;;;;;5023904;27;88945;-63
2024/02/29 05:25:03;;;;;;;2.15;1.50;;;19.90;55.80;;;;;;5018760;28;88267;-63
2024/02/29 05:27:31;;;;;;;2.20;1.40;;;19.90;55.80;;;;;;5028942;27;87245;-62
2024/02/29 05:29:57;;;;;;;2.88;1.80;;;20.00;55.90;;;;;;5026579;27;87941;-63
2024/02/29 05:32:23;;;;;;;2.10;1.60;;;20.00;55.80;;;;;;5021222;27;88502;-63
2024/02/29 05:34:49;;;;;;;3.15;2.10;;;20.00;55.80;;;;;;5012499;28;88119;-63
2024/02/29 05:37:15;;;;;;;2.95;2.15;;;19.90;55.80;;;;;;5015011;28;86841;-63
2024/02/29 05:39:42;;;;;;;2.65;1.90;;;20.00;55.70;;;;;;5013280;28;88450;-63
2024/02/29 05:42:09;;;;;;;2.45;1.85;;;20.00;55.70;;;;;;5029828;28;88741;-63
2024/02/29 05:44:35;;;;;;;2.15;1.63;;;19.90;55.70;;;;;;5019096;28;88580;-62
2024/02/29 05:47:02;;;;;;;2.53;1.58;;;19.90;55.70;;;;;;5025947;27;88314;-63
2024/02/29 05:49:28;;;;;;;1.98;1.50;;;19.90;55.70;;;;;;5035530;27;87378;-63
2024/02/29 05:51:55;;;;;;;2.85;1.98;;;19.90;55.70;;;;;;5032509;28;87217;-63
2024/02/29 05:54:20;;;;;;;2.13;1.33;;;19.90;55.70;;;;;;5033342;27;87716;-63
2024/02/29 05:56:46;;;;;;;4.15;1.60;;;20.00;54.80;;;;;;5024396;27;87402;-63
2024/02/29 05:59:12;;;;;;;2.40;1.55;;;20.00;54.80;;;;;;5032136;28;87723;-63
2024/02/29 06:01:39;;;;;;;2.00;1.42;;;20.00;55.00;;;;;;5010732;27;89295;-63
2024/02/29 06:04:06;;;;;;;1.63;1.23;;;20.00;55.00;;;;;;5014739;28;88321;-64
2024/02/29 06:06:32;;;;;;;2.60;1.73;;;19.90;54.90;;;;;;5013741;27;87910;-63
2024/02/29 06:09:01;;;;;;;2.53;1.45;;;19.90;54.90;;;;;;5012582;28;87887;-64
2024/02/29 06:11:28;;;;;;;2.83;1.88;;;19.90;55.20;;;;;;5019031;28;89605;-63
2024/02/29 06:13:53;;;;;;;6.10;2.13;;;19.90;55.10;;;;;;5017859;27;88747;-63
2024/02/29 06:16:19;;;;;;;3.70;1.73;;;19.90;55.00;;;;;;5020919;28;87428;-63
2024/02/29 06:18:48;;;;;;;2.55;1.70;;;19.90;55.00;;;;;;5019423;27;87602;-63
2024/02/29 06:21:15;;;;;;;1.83;1.50;;;19.90;55.00;;;;;;5014998;27;88385;-63
2024/02/29 06:23:41;;;;;;;2.42;1.58;;;19.90;55.10;;;;;;5023167;27;88039;-63
2024/02/29 06:26:07;;;;;;;2.33;1.70;;;19.80;55.00;;;;;;5022508;27;87300;-64
2024/02/29 06:28:33;;;;;;;3.10;1.58;;;19.80;55.00;;;;;;5034755;27;87644;-63
2024/02/29 06:30:59;;;;;;;2.05;1.40;;;19.80;55.10;;;;;;5015742;28;87546;-63
2024/02/29 06:33:26;;;;;;;2.58;1.30;;;19.80;55.00;;;;;;5027111;28;89171;-63
2024/02/29 06:35:52;;;;;;;2.97;1.70;;;19.80;55.20;;;;;;5031393;27;88100;-63
2024/02/29 06:38:18;;;;;;;2.97;1.58;;;19.80;55.10;;;;;;5033339;27;87415;-63
2024/02/29 06:40:43;;;;;;;1.83;1.15;;;19.80;55.00;;;;;;5019838;27;89295;-63
2024/02/29 06:43:09;;;;;;;2.65;1.50;;;19.80;55.10;;;;;;5014567;28;87873;-63
2024/02/29 06:45:35;;;;;;;2.95;2.03;;;19.80;54.90;;;;;;5041169;27;87466;-63
2024/02/29 06:48:01;;;;;;;2.10;1.50;;;19.80;55.60;;;;;;5032604;27;87388;-63
2024/02/29 06:50:27;;;;;;;2.05;1.65;;;19.70;54.80;;;;;;5032659;27;88061;-63
2024/02/29 06:52:52;;;;;;;2.28;1.67;;;19.80;54.90;;;;;;5031167;27;88086;-64
2024/02/29 06:55:18;;;;;;;2.63;1.73;;;19.70;54.90;;;;;;5029207;28;87236;-63
2024/02/29 06:57:44;;;;;;;1.40;1.30;;;19.80;54.90;;;;;;5029443;28;89075;-63
2024/02/29 07:00:11;;;;;;;2.08;1.60;;;19.80;54.90;;;;;;5019635;27;91135;-63
2024/02/29 07:02:37;;;;;;;2.70;1.55;;;19.80;55.00;;;;;;5015238;28;89862;-63
2024/02/29 07:05:03;;;;;;;2.00;1.50;;;19.80;55.20;;;;;;5028258;27;87388;-63
2024/02/29 07:07:29;;;;;;;2.92;1.75;;;19.80;55.50;;;;;;5020466;27;87490;-60
2024/02/29 07:09:56;;;;;;;3.05;1.60;;;19.90;55.50;;;;;;5013811;28;87542;-63
2024/02/29 07:12:22;;;;;;;2.63;1.73;;;20.10;55.20;;;;;;5033574;27;89022;-63
2024/02/29 07:14:48;;;;;;;2.47;1.55;;;20.30;55.10;;;;;;5022690;28;87465;-62
2024/02/29 07:17:14;;;;;;;2.95;2.10;;;20.70;54.80;;;;;;5017814;27;87507;-62
2024/02/29 07:19:40;;;;;;;2.58;1.83;;;21.10;54.40;;;;;;5013114;27;87961;-63
2024/02/29 07:22:06;;;;;;;4.43;2.60;;;21.30;53.50;;;;;;5014526;28;88471;-63
2024/02/29 07:24:31;;;;;;;3.05;1.80;;;21.60;53.40;;;;;;5009930;27;88111;-63
2024/02/29 07:26:58;;;;;;;1.95;1.40;;;21.80;52.80;;;;;;5029663;27;88727;-63
2024/02/29 07:29:25;;;;;;;2.55;1.42;;;21.90;52.30;;;;;;5016741;27;88311;-63
2024/02/29 07:31:51;;;;;;;2.67;1.70;;;22.00;52.80;;;;;;5016261;28;88758;-63
2024/02/29 07:34:17;;;;;;;2.03;1.48;;;22.10;52.10;;;;;;5024752;28;87355;-63
2024/02/29 07:36:44;;;;;;;4.47;1.80;;;22.20;51.60;;;;;;5013765;27;87541;-63
2024/02/29 07:39:13;;;;;;;3.40;1.55;;;22.20;51.60;;;;;;5009086;28;87731;-62
2024/02/29 07:41:39;;;;;;;4.60;2.10;;;22.30;51.50;;;;;;5027374;27;87799;-62
2024/02/29 07:44:05;;;;;;;4.90;2.22;;;22.30;51.70;;;;;;5032165;27;86824;-62
2024/02/29 07:46:32;;;;;;;5.50;1.65;;;22.30;51.20;;;;;;5031905;27;87581;-62
2024/02/29 07:48:58;;;;;;;2.15;1.73;;;22.40;51.30;;;;;;5024520;28;89526;-62
2024/02/29 07:51:24;;;;;;;2.60;1.73;;;22.40;51.20;;;;;;5031910;27;89124;-63
2024/02/29 07:53:50;;;;;;;2.63;1.58;;;22.40;51.60;;;;;;5024288;27;87496;-62
2024/02/29 07:56:16;;;;;;;3.80;2.05;;;22.40;51.50;;;;;;5030412;27;87671;-63
2024/02/29 07:58:43;;;;;;;3.35;1.85;;;22.40;51.60;;;;;;5024668;27;88588;-62
2024/02/29 08:01:09;;;;;;;4.95;1.70;;;22.40;51.70;;;;;;5024829;28;88622;-62
2024/02/29 08:03:35;;;;;;;3.50;1.85;;;22.40;51.80;;;;;;5007036;28;87300;-62
2024/02/29 08:06:00;;;;;;;2.70;1.90;;;22.40;51.50;;;;;;5017995;27;87212;-62
2024/02/29 08:08:27;;;;;;;4.38;1.90;;;22.50;51.80;;;;;;5011471;27;87520;-63
2024/02/29 08:10:54;;;;;;;3.35;1.80;;;22.40;51.80;;;;;;5024797;27;87473;-62
2024/02/29 08:13:19;;;;;;;5.38;1.98;;;22.40;51.90;;;;;;5011442;27;88345;-63
2024/02/29 08:15:46;;;;;;;6.75;2.72;;;22.30;52.10;;;;;;5017901;27;87368;-62
2024/02/29 08:18:13;;;;;;;3.55;2.22;;;22.20;52.50;;;;;;5031369;27;89303;-62
2024/02/29 08:20:43;;;;;;;8.20;2.15;;;22.20;52.20;;;;;;5019306;27;89065;-63
2024/02/29 08:23:12;;;;;;;4.63;2.17;;;22.20;52.20;;;;;;5010050;27;87001;-63
2024/02/29 08:25:38;;;;;;;10.07;2.85;;;22.30;52.20;;;;;;5018243;27;87419;-65
2024/02/29 08:28:05;;;;;;;7.65;2.97;;;22.40;52.20;;;;;;5017211;28;87574;-63
2024/02/29 08:30:31;;;;;;;11.20;3.33;;;22.50;52.60;;;;;;5028328;27;87846;-63
2024/02/29 08:32:59;;;;;;;7.80;2.80;;;22.40;51.50;;;;;;5025545;27;87730;-64
2024/02/29 08:35:25;;;;;;;8.63;2.83;;;22.40;51.60;;;;;;5029202;28;87916;-63
2024/02/29 08:37:50;;;;;;;10.63;2.45;;;22.40;51.70;;;;;;5021582;27;88754;-65
2024/02/29 08:40:16;;;;;;;6.90;1.77;;;22.30;51.60;;;;;;5011233;28;89523;-65
2024/02/29 08:42:42;;;;;;;10.90;3.40;;;21.90;48.90;;;;;;5017482;27;87233;-65
2024/02/29 08:45:11;;;;;;;6.07;2.03;;;21.80;49.70;;;;;;5030916;27;87630;-64
2024/02/29 08:47:37;;;;;;;6.85;3.38;;;21.60;50.30;;;;;;5026740;27;88556;-64
2024/02/29 08:50:08;;;;;;;7.97;2.58;;;21.50;49.90;;;;;;5017707;27;87811;-65
2024/02/29 08:52:36;;;;;;;9.52;2.92;;;21.40;49.70;;;;;;5008906;27;87476;-64
2024/02/29 08:55:02;;;;;;;7.22;3.17;;;21.30;50.00;;;;;;5011685;28;87914;-64
2024/02/29 08:57:29;;;;;;;5.90;2.47;;;21.30;49.60;;;;;;5040357;27;88686;-65
2024/02/29 08:59:54;;;;;;;15.15;2.60;;;21.20;49.80;;;;;;5018930;28;88909;-65
2024/02/29 09:02:20;;;;;;;8.80;2.67;;;21.20;50.00;;;;;;5031163;27;88243;-64
2024/02/29 09:04:47;;;;;;;12.95;3.00;;;21.20;49.70;;;;;;5008590;27;87343;-65
2024/02/29 09:07:12;;;;;;;7.28;2.22;;;21.10;49.40;;;;;;5012385;28;88474;-64
2024/02/29 09:09:41;;;;;;;7.60;2.22;;;21.10;49.50;;;;;;5013865;27;87935;-65
2024/02/29 09:12:10;;;;;;;8.82;2.28;;;21.20;50.00;;;;;;5019881;27;87452;-63
2024/02/29 09:14:39;;;;;;;5.00;2.00;;;21.20;49.70;;;;;;5020530;27;87661;-62
2024/02/29 09:17:06;;;;;;;6.03;2.58;;;21.10;49.60;;;;;;5020529;27;88047;-64
2024/02/29 09:19:32;;;;;;;9.63;1.98;;;21.20;49.60;;;;;;5025868;27;88142;-64
2024/02/29 09:21:59;;;;;;;6.93;2.90;;;21.20;50.70;;;;;;5013066;28;86958;-64
2024/02/29 09:24:25;;;;;;;16.85;3.30;;;21.20;50.30;;;;;;5030151;27;87772;-64
2024/02/29 09:26:51;;;;;;;5.88;1.90;;;21.20;49.80;;;;;;5025902;27;88586;-64
2024/02/29 09:29:16;;;;;;;6.63;2.92;;;21.20;49.00;;;;;;5019303;27;87175;-64
2024/02/29 09:31:43;;;;;;;5.95;2.22;;;21.20;48.50;;;;;;5013044;28;86944;-64
2024/02/29 09:34:09;;;;;;;4.10;2.15;;;21.20;48.00;;;;;;5015512;28;86995;-64
2024/02/29 09:36:37;;;;;;;5.35;2.20;;;21.30;48.50;;;;;;5022110;28;88749;-63
2024/02/29 09:39:05;;;;;;;8.88;2.17;;;21.40;49.00;;;;;;5013377;27;87862;-64
2024/02/29 09:41:31;;;;;;;5.25;2.30;;;21.50;49.20;;;;;;5013210;28;87291;-63
2024/02/29 09:43:57;;;;;;;2.97;1.60;;;21.70;49.80;;;;;;5027962;27;88109;-66
2024/02/29 09:46:24;;;;;;;6.07;2.30;;;21.90;49.10;;;;;;5031897;28;87357;-66
2024/02/29 09:48:50;;;;;;;5.15;1.98;;;22.10;49.20;;;;;;5020911;28;90244;-68
2024/02/29 09:51:22;;;;;;;5.60;2.20;;;22.10;48.90;;;;;;5020374;27;88405;-67
2024/02/29 09:53:51;;;;;;;4.63;2.17;;;22.30;48.90;;;;;;5025783;27;88380;-62
2024/02/29 09:56:24;;;;;;;5.00;1.70;;;22.40;48.70;;;;;;5031106;27;88583;-63
2024/02/29 09:58:51;;;;;;;3.50;2.15;;;22.50;48.40;;;;;;5021551;28;88534;-63
2024/02/29 10:01:17;;;;;;;3.60;1.83;;;22.60;48.10;;;;;;5029873;28;87212;-62
2024/02/29 10:03:45;;;;;;;3.00;1.50;;;22.60;49.10;;;;;;5019289;28;87631;-64
2024/02/29 10:06:11;;;;;;;5.97;2.30;;;22.60;47.20;;;;;;5020986;27;87894;-63
2024/02/29 10:08:38;;;;;;;3.78;1.67;;;22.50;47.40;;;;;;5002600;27;90495;-64
2024/02/29 10:11:04;;;;;;;4.43;1.40;;;22.50;47.60;;;;;;4995322;27;87769;-64
2024/02/29 10:13:40;;;;;;;5.22;2.35;;;22.40;47.80;;;;;;5001940;27;89060;-64
2024/02/29 10:16:08;;;;;;;3.72;1.80;;;22.60;48.40;;;;;;5013883;28;88423;-63
2024/02/29 10:18:35;;;;;;;5.28;2.15;;;22.60;48.40;;;;;;5004631;27;89308;-63
2024/02/29 10:21:02;;;;;;;4.47;1.55;;;22.60;48.50;;;;;;5026002;27;87405;-64
2024/02/29 10:23:31;;;;;;;5.35;1.90;;;22.70;48.60;;;;;;5023609;27;87988;-62
2024/02/29 10:25:57;;;;;;;3.88;1.70;;;22.70;48.50;;;;;;5035447;27;88642;-62
2024/02/29 10:28:24;;;;;;;2.03;1.52;;;22.70;48.20;;;;;;5023764;27;87497;-63
2024/02/29 10:30:54;;;;;;;4.35;2.25;;;22.70;48.40;;;;;;5023021;28;87405;-63
2024/02/29 10:33:21;;;;;;;2.28;1.40;;;22.70;48.60;;;;;;5030340;27;87749;-63
2024/02/29 10:35:47;;;;;;;4.47;1.85;;;22.70;48.50;;;;;;5025250;27;88124;-63
2024/02/29 10:38:14;;;;;;;3.20;1.65;;;22.70;48.70;;;;;;5009434;27;87619;-63
2024/02/29 10:40:40;;;;;;;7.07;2.28;;;22.70;48.80;;;;;;5020781;27;87827;-63
2024/02/29 10:43:11;;;;;;;3.28;1.63;;;22.70;48.90;;;;;;5014061;27;88000;-64
2024/02/29 10:45:49;;;;;;;3.90;1.77;;;22.80;49.00;;;;;;5024157;27;89093;-63
2024/02/29 10:48:37;;;;;;;3.65;1.50;;;22.80;48.80;;;;;;5014535;27;89033;-63
2024/02/29 10:51:16;;;;;;;2.55;1.83;;;22.90;48.70;;;;;;5020091;27;87156;-63
2024/02/29 10:54:16;;;;;;;3.58;1.70;;;22.90;48.90;;;;;;5020936;27;88094;-64
2024/02/29 10:56:46;;;;;;;3.10;1.70;;;22.90;48.60;;;;;;5025346;27;88301;-63
2024/02/29 10:59:15;;;;;;;2.17;1.40;;;23.00;48.60;;;;;;5019300;27;88642;-63
2024/02/29 11:01:41;;;;;;;5.43;1.90;;;22.90;48.70;;;;;;5020040;27;87859;-63
2024/02/29 11:04:07;;;;;;;5.13;1.98;;;22.90;48.70;;;;;;5015862;27;88174;-64
2024/02/29 11:06:42;;;;;;;3.10;1.90;;;22.90;48.70;;;;;;5013599;27;89332;-63
2024/02/29 11:09:09;;;;;;;3.35;1.30;;;23.00;49.00;;;;;;5013601;27;88864;-64
2024/02/29 11:11:36;;;;;;;3.60;1.55;;;22.90;49.00;;;;;;5031304;27;87268;-64
2024/02/29 11:14:06;;;;;;;1.85;1.33;;;22.80;49.30;;;;;;5020869;27;86972;-64
2024/02/29 11:16:32;;;;;;;3.33;1.50;;;22.80;49.50;;;;;;5019914;27;89129;-64
2024/02/29 11:19:02;;;;;;;4.93;2.00;;;22.70;49.80;;;;;;5022238;28;88042;-64
2024/02/29 11:21:31;;;;;;;3.67;1.60;;;22.70;50.00;;;;;;5030672;27;87161;-64
2024/02/29 11:24:05;;;;;;;3.72;1.33;;;22.60;50.10;;;;;;5030933;27;86839;-63
2024/02/29 11:26:35;;;;;;;3.20;1.60;;;22.70;50.40;;;;;;5031448;27;90389;-64
2024/02/29 11:29:30;;;;;;;2.13;1.35;;;22.70;50.40;;;;;;5026841;27;87241;-63
2024/02/29 11:31:57;;;;;;;2.72;1.50;;;22.70;50.80;;;;;;5031936;27;88061;-64
2024/02/29 11:34:23;;;;;;;2.92;1.35;;;22.70;50.80;;;;;;5022537;27;87997;-64
2024/02/29 11:36:50;;;;;;;11.18;1.90;;;22.70;50.90;;;;;;5020293;27;88341;-62
2024/02/29 11:39:22;;;;;;;2.97;1.00;;;22.60;50.10;;;;;;5023223;27;88240;-62
2024/02/29 11:41:49;;;;;;;3.45;1.23;;;22.40;50.30;;;;;;5015236;28;87219;-64
2024/02/29 11:44:15;;;;;;;2.00;1.15;;;22.40;50.60;;;;;;5012474;27;87214;-65
2024/02/29 11:46:45;;;;;;;2.65;1.73;;;22.30;51.00;;;;;;5013063;27;88829;-64
2024/02/29 11:49:20;;;;;;;2.22;1.13;;;22.30;51.30;;;;;;5024144;27;87478;-64
2024/02/29 11:51:47;;;;;;;2.42;1.25;;;22.30;51.40;;;;;;5019226;27;88327;-65
2024/02/29 11:54:17;;;;;;;1.80;1.20;;;22.30;51.70;;;;;;5028930;27;87863;-64
2024/02/29 11:56:43;;;;;;;3.78;1.15;;;22.20;51.60;;;;;;5025690;27;88946;-64
2024/02/29 11:59:10;;;;;;;3.63;1.48;;;22.20;51.60;;;;;;5021374;27;88141;-65
2024/02/29 12:01:36;;;;;;;2.85;1.58;;;22.10;52.40;;;;;;5027567;27;87299;-64
2024/02/29 12:04:04;;;;;;;3.03;1.52;;;22.10;51.80;;;;;;5032820;28;87324;-64
2024/02/29 12:06:30;;;;;;;4.15;2.10;;;22.10;51.90;;;;;;5024890;27;88064;-64
2024/02/29 12:08:56;;;;;;;3.08;1.55;;;22.10;51.80;;;;;;5026200;27;87777;-64
2024/02/29 12:11:23;;;;;;;2.83;1.52;;;22.10;51.60;;;;;;5017048;28;87079;-64
2024/02/29 12:13:49;;;;;;;3.92;1.48;;;22.10;51.50;;;;;;5012285;27;87680;-64
2024/02/29 12:16:15;;;;;;;2.17;1.20;;;22.20;52.10;;;;;;5036806;27;88230;-64
2024/02/29 12:18:41;;;;;;;3.03;1.30;;;22.20;51.40;;;;;;5016904;27;87977;-65
2024/02/29 12:21:07;;;;;;;1.95;0.93;;;22.10;51.40;;;;;;5017770;28;88401;-64
2024/02/29 12:23:33;;;;;;;2.28;1.10;;;22.10;51.40;;;;;;5010752;27;87066;-64
2024/02/29 12:26:16;;;;;;;2.35;1.23;;;22.10;51.20;;;;;;5016319;28;88541;-65
2024/02/29 12:28:42;;;;;;;5.95;1.85;;;22.10;51.30;;;;;;5021771;27;87692;-64
2024/02/29 12:31:08;;;;;;;3.03;1.58;;;22.20;51.40;;;;;;5017898;27;87659;-64
2024/02/29 12:33:45;;;;;;;2.28;1.38;;;22.20;51.30;;;;;;5020504;27;87752;-64
2024/02/29 12:36:12;;;;;;;1.70;1.00;;;22.20;51.50;;;;;;5011533;27;87973;-64
2024/02/29 12:38:39;;;;;;;2.13;1.48;;;22.20;51.50;;;;;;5021512;27;87356;-64
2024/02/29 12:41:06;;;;;;;2.75;1.23;;;22.20;51.50;;;;;;5011181;27;87193;-64
2024/02/29 12:43:33;;;;;;;2.13;1.27;;;22.20;51.50;;;;;;5015949;27;88176;-64